Portada
METAR-TAF:

METAR-TAF

Aeroports :

Millington, Tennessee, Estats Units d'Amèrica

latitud: 35-21-24N, longitud: 089-52-13W, altitud: 98 m

Observació

L'informe es va fer fa 20 minuts, a les 16:50 UTC
Vent 7 kt del Sud/Sud-Est amb ràfegues de 13 kt
Temperatura 13°C
Humitat 82%
Pressió 1016 hPa
Visibilitat: 16.1 km
Cel cobert a una alçada de 1300 ft

METAR: KNQA 171650Z 15007G13KT 10SM OVC013 13/10 A3000

Hora: 11:10 (17:10 UTC)


TAF: manca

Observacions i pronòstics meteorològics de més de 4000 aeroports (METAR i TAF).

Les estacions disponibles són els punts grocs i vermells al mapa.

Posi el ratolí al punt desitjat per veure el nom de l'estació.

Feu clic per veure les observacions i els pronòstics meteorològics.

Per canviar el mapa: feu clic els botons verds amb una creu de color negre per apropar; al botó verd amb un guió per allunyar la imatge; o en les fletxes verdes per a mapes adjacents.


METAR-TAF: